createdAt,value
2023-02-09T00:01:05.729Z,3.30
2023-02-09T00:03:32.981Z,3.80
2023-02-09T00:06:00.699Z,0.80
2023-02-09T00:08:27.613Z,3.23
2023-02-09T00:10:54.741Z,4.43
2023-02-09T00:13:25.332Z,1.47
2023-02-09T00:16:01.865Z,2.07
2023-02-09T00:18:30.792Z,2.73
2023-02-09T00:21:01.890Z,2.67
2023-02-09T00:23:30.231Z,4.30
2023-02-09T00:26:01.399Z,2.90
2023-02-09T00:28:28.463Z,2.83
2023-02-09T00:30:55.271Z,3.90
2023-02-09T00:33:23.394Z,3.67
2023-02-09T00:35:50.175Z,5.03
2023-02-09T00:38:17.159Z,0.83
2023-02-09T00:40:44.260Z,1.90
2023-02-09T00:43:11.921Z,3.43
2023-02-09T00:45:38.690Z,3.03
2023-02-09T00:48:05.632Z,2.83
2023-02-09T00:50:32.281Z,0.50
2023-02-09T00:52:59.048Z,2.50
2023-02-09T00:55:25.786Z,2.13
2023-02-09T00:57:52.538Z,2.47
2023-02-09T01:00:20.615Z,1.90
2023-02-09T01:02:47.657Z,2.00
2023-02-09T01:05:14.501Z,3.30
2023-02-09T01:07:41.219Z,3.63
2023-02-09T01:10:08.102Z,3.73
2023-02-09T01:12:34.985Z,1.63
2023-02-09T01:15:02.469Z,3.50
2023-02-09T01:17:29.219Z,8.43
2023-02-09T01:19:56.256Z,8.00
2023-02-09T01:22:23.152Z,2.63
2023-02-09T01:24:49.949Z,3.07
2023-02-09T01:27:17.177Z,4.40
2023-02-09T01:29:44.107Z,3.20
2023-02-09T01:32:10.876Z,2.73
2023-02-09T01:34:38.252Z,5.03
2023-02-09T01:37:05.221Z,2.67
2023-02-09T01:39:32.344Z,10.43
2023-02-09T01:41:59.031Z,2.60
2023-02-09T01:44:25.695Z,3.33
2023-02-09T01:46:52.586Z,2.10
2023-02-09T01:49:26.404Z,2.80
2023-02-09T01:51:57.737Z,2.20
2023-02-09T01:54:39.356Z,2.07
2023-02-09T01:57:10.229Z,7.00
2023-02-09T01:59:39.286Z,4.93
2023-02-09T02:02:06.833Z,3.83
2023-02-09T02:04:34.539Z,5.07
2023-02-09T02:07:11.886Z,2.80
2023-02-09T02:09:38.635Z,3.30
2023-02-09T02:12:05.726Z,4.13
2023-02-09T02:14:38.213Z,3.27
2023-02-09T02:17:42.880Z,6.53
2023-02-09T02:20:44.005Z,3.97
2023-02-09T02:23:29.965Z,2.00
2023-02-09T02:25:56.662Z,2.40
2023-02-09T02:28:45.214Z,4.87
2023-02-09T02:31:49.047Z,2.90
2023-02-09T02:34:23.303Z,2.77
2023-02-09T02:37:01.810Z,3.70
2023-02-09T02:39:45.357Z,2.20
2023-02-09T02:42:47.849Z,5.30
2023-02-09T02:45:43.216Z,2.73
2023-02-09T02:48:25.262Z,4.20
2023-02-09T02:51:03.176Z,1.10
2023-02-09T02:53:32.627Z,3.27
2023-02-09T02:56:20.586Z,3.60
2023-02-09T02:58:49.396Z,3.07
2023-02-09T03:01:19.477Z,2.17
2023-02-09T03:03:46.680Z,6.00
2023-02-09T03:06:14.174Z,2.97
2023-02-09T03:08:55.605Z,2.53
2023-02-09T03:11:25.172Z,2.30
2023-02-09T03:14:06.326Z,2.33
2023-02-09T03:16:48.869Z,1.40
2023-02-09T03:19:41.406Z,3.30
2023-02-09T03:22:17.082Z,1.90
2023-02-09T03:24:43.767Z,3.33
2023-02-09T03:27:17.131Z,3.07
2023-02-09T03:29:49.488Z,2.30
2023-02-09T03:32:17.796Z,3.13
2023-02-09T03:34:45.868Z,7.30
2023-02-09T03:37:12.788Z,10.03
2023-02-09T03:39:39.748Z,2.50
2023-02-09T03:42:06.828Z,5.63
2023-02-09T03:44:33.541Z,2.97
2023-02-09T03:47:02.758Z,2.53
2023-02-09T03:49:33.660Z,3.60
2023-02-09T03:52:01.959Z,1.60
2023-02-09T03:54:32.888Z,1.60
2023-02-09T03:57:00.666Z,2.40
2023-02-09T03:59:28.018Z,1.67
2023-02-09T04:01:56.186Z,1.23
2023-02-09T04:04:23.428Z,1.97
2023-02-09T04:06:50.215Z,2.07
2023-02-09T04:09:16.999Z,2.27
2023-02-09T04:11:43.675Z,2.23
2023-02-09T04:14:10.893Z,2.63
2023-02-09T04:16:38.031Z,2.33
2023-02-09T04:19:05.668Z,1.63
2023-02-09T04:21:32.838Z,1.70
2023-02-09T04:23:59.594Z,2.03
2023-02-09T04:26:26.282Z,3.40
2023-02-09T04:28:53.062Z,3.03
2023-02-09T04:31:19.899Z,1.37
2023-02-09T04:33:46.687Z,13.47
2023-02-09T04:36:13.526Z,9.63
2023-02-09T04:38:40.555Z,4.00
2023-02-09T04:41:07.327Z,0.60
2023-02-09T04:43:34.408Z,1.80
2023-02-09T04:46:01.347Z,1.67
2023-02-09T04:48:29.533Z,1.23
2023-02-09T04:50:56.437Z,4.73
2023-02-09T04:53:23.952Z,2.27
2023-02-09T04:55:51.528Z,0.90
2023-02-09T04:58:38.736Z,2.17
2023-02-09T05:01:06.161Z,0.60
2023-02-09T05:03:33.073Z,3.13
2023-02-09T05:06:04.602Z,1.87
2023-02-09T05:08:31.931Z,5.00
2023-02-09T05:10:58.996Z,8.53
2023-02-09T05:13:26.539Z,2.00
2023-02-09T05:15:53.759Z,2.20
2023-02-09T05:18:20.531Z,3.17
2023-02-09T05:20:47.884Z,2.37
2023-02-09T05:23:14.804Z,1.20
2023-02-09T05:25:42.002Z,6.60
2023-02-09T05:28:08.795Z,6.70
2023-02-09T05:30:35.420Z,5.40
2023-02-09T05:33:03.193Z,5.60
2023-02-09T05:35:30.038Z,2.73
2023-02-09T05:37:56.711Z,4.20
2023-02-09T05:40:23.394Z,5.03
2023-02-09T05:42:50.067Z,4.37
2023-02-09T05:45:16.776Z,2.60
2023-02-09T05:47:45.418Z,1.20
2023-02-09T05:50:12.199Z,2.00
2023-02-09T05:52:38.920Z,4.00
2023-02-09T05:55:05.887Z,3.00
2023-02-09T05:57:32.539Z,4.83
2023-02-09T05:59:59.280Z,6.60
2023-02-09T06:02:25.999Z,1.63
2023-02-09T06:04:52.783Z,3.33
2023-02-09T06:07:19.415Z,2.97
2023-02-09T06:09:46.257Z,4.50
2023-02-09T06:12:13.044Z,2.90
2023-02-09T06:14:39.789Z,5.43
2023-02-09T06:17:06.503Z,11.60
2023-02-09T06:19:33.225Z,8.70
2023-02-09T06:21:59.992Z,9.80
2023-02-09T06:24:26.851Z,19.07
2023-02-09T06:26:53.622Z,15.20
2023-02-09T06:29:20.375Z,13.63
2023-02-09T06:31:47.326Z,16.43
2023-02-09T06:34:14.201Z,15.67
2023-02-09T06:36:40.934Z,7.27
2023-02-09T06:39:08.789Z,6.60
2023-02-09T06:41:35.583Z,7.73
2023-02-09T06:44:02.348Z,5.83
2023-02-09T06:46:29.135Z,4.43
2023-02-09T06:48:56.502Z,4.70
2023-02-09T06:51:24.066Z,1.10
2023-02-09T06:53:51.048Z,3.60
2023-02-09T06:56:17.860Z,1.43
2023-02-09T06:58:44.600Z,3.60
2023-02-09T07:01:15.760Z,2.50
2023-02-09T07:03:43.325Z,2.43
2023-02-09T07:06:18.628Z,2.43
2023-02-09T07:08:46.268Z,2.57
2023-02-09T07:11:15.610Z,5.17
2023-02-09T07:13:42.957Z,6.20
2023-02-09T07:16:11.406Z,4.97
2023-02-09T07:18:39.830Z,5.50
2023-02-09T07:21:09.248Z,5.60
2023-02-09T07:23:36.386Z,6.10
2023-02-09T07:26:05.009Z,31.40
2023-02-09T07:28:32.324Z,16.10
2023-02-09T07:31:04.124Z,13.57
2023-02-09T07:33:30.958Z,16.20
2023-02-09T07:35:57.958Z,21.97
2023-02-09T07:38:25.014Z,21.17
2023-02-09T07:40:51.929Z,19.43
2023-02-09T07:43:18.715Z,41.40
2023-02-09T07:45:45.621Z,21.90
2023-02-09T07:48:12.596Z,11.33
2023-02-09T07:50:39.430Z,27.60
2023-02-09T07:53:06.150Z,18.53
2023-02-09T07:55:32.879Z,13.47
2023-02-09T07:57:59.632Z,16.40
2023-02-09T08:00:26.455Z,24.93
2023-02-09T08:02:53.292Z,19.30
2023-02-09T08:05:28.815Z,9.87
2023-02-09T08:07:56.191Z,5.13
2023-02-09T08:10:23.280Z,8.93
2023-02-09T08:13:05.239Z,14.93
2023-02-09T08:15:45.080Z,9.30
2023-02-09T08:18:15.628Z,12.53
2023-02-09T08:20:43.746Z,12.20
2023-02-09T08:23:16.948Z,16.10
2023-02-09T08:25:44.004Z,14.93
2023-02-09T08:28:11.152Z,50.23
2023-02-09T08:30:38.446Z,38.40
2023-02-09T08:33:05.142Z,32.07
2023-02-09T08:35:31.941Z,21.43
2023-02-09T08:38:01.246Z,23.73
2023-02-09T08:40:28.388Z,37.13
2023-02-09T08:42:55.134Z,19.50
2023-02-09T08:45:22.438Z,16.40
2023-02-09T08:47:49.188Z,12.30
2023-02-09T08:50:16.297Z,7.70
2023-02-09T08:52:43.012Z,12.27
2023-02-09T08:55:10.112Z,14.53
2023-02-09T08:57:44.125Z,25.60
2023-02-09T09:00:11.951Z,14.70
2023-02-09T09:02:38.783Z,11.17
2023-02-09T09:05:05.840Z,13.97
2023-02-09T09:07:32.686Z,10.47
2023-02-09T09:09:59.492Z,11.90
2023-02-09T09:12:26.263Z,8.07
2023-02-09T09:14:53.091Z,7.80
2023-02-09T09:17:19.773Z,25.60
2023-02-09T09:19:46.706Z,11.90
2023-02-09T09:22:13.472Z,12.20
2023-02-09T09:24:43.160Z,10.43
2023-02-09T09:27:11.121Z,9.27
2023-02-09T09:29:40.137Z,8.77
2023-02-09T09:32:08.193Z,6.90
2023-02-09T09:34:35.067Z,9.53
2023-02-09T09:37:01.761Z,14.80
2023-02-09T09:39:28.662Z,13.53
2023-02-09T09:41:59.545Z,20.63
2023-02-09T09:44:46.916Z,20.40
2023-02-09T09:47:18.500Z,13.87
2023-02-09T09:49:45.364Z,9.27
2023-02-09T09:52:36.700Z,12.27
2023-02-09T09:55:06.659Z,17.57
2023-02-09T09:57:38.739Z,14.20
2023-02-09T10:00:23.188Z,12.80
2023-02-09T10:02:49.940Z,8.30
2023-02-09T10:05:26.159Z,12.10
2023-02-09T10:08:07.986Z,7.87
2023-02-09T10:10:40.800Z,10.00
2023-02-09T10:13:21.258Z,9.97
2023-02-09T10:15:50.242Z,11.20
2023-02-09T10:18:17.932Z,19.30
2023-02-09T10:20:46.969Z,15.97
2023-02-09T10:23:28.785Z,13.43
2023-02-09T10:26:00.939Z,22.97
2023-02-09T10:28:31.251Z,5.67
2023-02-09T10:31:00.882Z,6.23
2023-02-09T10:33:30.346Z,7.77
2023-02-09T10:36:01.173Z,13.60
2023-02-09T10:38:33.152Z,11.70
2023-02-09T10:41:00.663Z,12.17
2023-02-09T10:43:31.465Z,9.73
2023-02-09T10:46:00.466Z,9.33
2023-02-09T10:48:28.063Z,7.17
2023-02-09T10:50:57.305Z,11.70
2023-02-09T10:53:36.663Z,11.80
2023-02-09T10:56:15.930Z,6.97
2023-02-09T10:58:50.472Z,12.80
2023-02-09T11:01:24.905Z,15.20
2023-02-09T11:04:02.361Z,8.67
2023-02-09T11:06:35.892Z,8.77
2023-02-09T11:09:07.306Z,11.33
2023-02-09T11:11:37.005Z,5.20
2023-02-09T11:14:06.337Z,26.43
2023-02-09T11:17:01.108Z,11.57
2023-02-09T11:19:58.749Z,6.80
2023-02-09T11:22:48.586Z,16.13
2023-02-09T11:25:21.269Z,12.10
2023-02-09T11:28:19.516Z,10.27
2023-02-09T11:31:10.194Z,11.53
2023-02-09T11:33:53.222Z,7.73
2023-02-09T11:36:39.489Z,8.33
2023-02-09T11:39:11.960Z,9.50
2023-02-09T11:42:31.229Z,8.27
2023-02-09T11:45:00.259Z,13.50
2023-02-09T11:47:49.240Z,6.90
2023-02-09T11:50:22.579Z,6.43
2023-02-09T11:52:53.128Z,13.50
2023-02-09T11:55:33.995Z,11.70
2023-02-09T11:58:32.699Z,8.07
2023-02-09T12:01:24.419Z,9.07
2023-02-09T12:03:59.684Z,12.73
2023-02-09T12:06:35.767Z,5.17
2023-02-09T12:09:04.897Z,6.47
2023-02-09T12:11:57.906Z,8.50
2023-02-09T12:14:36.524Z,5.17
2023-02-09T12:17:35.596Z,5.20
2023-02-09T12:20:02.710Z,12.70
2023-02-09T12:22:35.644Z,6.13
2023-02-09T12:25:17.528Z,7.37
2023-02-09T12:28:17.251Z,3.40
2023-02-09T12:30:44.265Z,8.17
2023-02-09T12:33:24.501Z,4.13
2023-02-09T12:36:09.629Z,5.13
2023-02-09T12:38:55.498Z,3.60
2023-02-09T12:41:25.893Z,3.80
2023-02-09T12:44:11.131Z,4.57
2023-02-09T12:46:55.778Z,7.30
2023-02-09T12:49:28.932Z,5.17
2023-02-09T12:52:01.772Z,5.30
2023-02-09T12:54:56.834Z,2.80
2023-02-09T12:57:23.981Z,12.27
2023-02-09T12:59:51.034Z,11.10
2023-02-09T13:02:27.274Z,8.17
2023-02-09T13:05:00.242Z,9.33
2023-02-09T13:07:43.245Z,4.13
2023-02-09T13:10:51.435Z,3.80
2023-02-09T13:13:20.521Z,8.17
2023-02-09T13:16:05.390Z,4.60
2023-02-09T13:18:50.710Z,15.20
2023-02-09T13:21:42.277Z,9.20
2023-02-09T13:24:15.370Z,5.90
2023-02-09T13:26:56.806Z,13.70
2023-02-09T13:29:25.992Z,8.17
2023-02-09T13:32:09.898Z,7.73
2023-02-09T13:34:55.347Z,5.20
2023-02-09T13:37:27.393Z,5.63
2023-02-09T13:39:57.804Z,6.20
2023-02-09T13:42:26.503Z,15.93
2023-02-09T13:44:55.581Z,8.70
2023-02-09T13:47:22.732Z,15.40
2023-02-09T13:50:13.963Z,6.00
2023-02-09T13:52:40.885Z,7.67
2023-02-09T13:55:21.140Z,6.33
2023-02-09T13:58:08.127Z,9.17
2023-02-09T14:00:43.862Z,13.90
2023-02-09T14:03:22.311Z,18.13
2023-02-09T14:06:00.894Z,6.63
2023-02-09T14:08:29.427Z,11.90
2023-02-09T14:11:05.461Z,5.87
2023-02-09T14:13:40.772Z,2.93
2023-02-09T14:16:07.808Z,7.57
2023-02-09T14:18:53.845Z,7.00
2023-02-09T14:21:40.212Z,9.40
2023-02-09T14:24:08.565Z,5.67
2023-02-09T14:26:41.583Z,8.27
2023-02-09T14:29:18.162Z,11.00
2023-02-09T14:31:50.393Z,9.43
2023-02-09T14:34:27.322Z,6.03
2023-02-09T14:37:02.852Z,12.50
2023-02-09T14:39:31.639Z,15.73
2023-02-09T14:42:01.064Z,9.60
2023-02-09T14:44:28.724Z,7.57
2023-02-09T14:46:59.257Z,5.90
2023-02-09T14:49:26.484Z,3.90
2023-02-09T14:52:13.605Z,4.93
2023-02-09T14:54:47.474Z,3.70
2023-02-09T14:57:14.241Z,3.40
2023-02-09T14:59:40.996Z,2.07
2023-02-09T15:02:20.057Z,2.67
2023-02-09T15:04:47.291Z,2.67
2023-02-09T15:07:19.073Z,2.00
2023-02-09T15:09:46.276Z,2.83
2023-02-09T15:12:28.072Z,3.50
2023-02-09T15:14:58.803Z,2.90
2023-02-09T15:17:30.278Z,2.53
2023-02-09T15:19:58.121Z,2.60
2023-02-09T15:22:25.528Z,4.83
2023-02-09T15:24:54.481Z,6.07
2023-02-09T15:27:29.238Z,4.30
2023-02-09T15:29:58.964Z,2.80
2023-02-09T15:32:26.911Z,2.13
2023-02-09T15:34:54.285Z,14.13
2023-02-09T15:37:29.753Z,3.53
2023-02-09T15:39:59.884Z,6.73
2023-02-09T15:42:45.376Z,6.13
2023-02-09T15:45:35.343Z,2.27
2023-02-09T15:48:02.563Z,2.53
2023-02-09T15:50:30.500Z,6.03
2023-02-09T15:52:58.213Z,1.90
2023-02-09T15:55:26.498Z,2.20
2023-02-09T15:57:54.018Z,2.43
2023-02-09T16:00:24.832Z,3.97
2023-02-09T16:02:56.297Z,3.63
2023-02-09T16:05:24.974Z,8.70
2023-02-09T16:07:52.917Z,9.43
2023-02-09T16:10:23.311Z,7.13
2023-02-09T16:12:50.324Z,7.07
2023-02-09T16:15:19.090Z,4.60
2023-02-09T16:17:45.949Z,9.23
2023-02-09T16:20:13.917Z,19.27
2023-02-09T16:22:43.123Z,4.90
2023-02-09T16:25:19.466Z,2.60
2023-02-09T16:27:46.392Z,2.07
2023-02-09T16:30:18.490Z,2.67
2023-02-09T16:32:45.866Z,6.13
2023-02-09T16:35:16.924Z,21.27
2023-02-09T16:37:45.479Z,5.77
2023-02-09T16:40:23.288Z,3.33
2023-02-09T16:42:50.465Z,3.57
2023-02-09T16:45:18.488Z,2.17
2023-02-09T16:47:50.317Z,4.63
2023-02-09T16:50:26.509Z,2.23
2023-02-09T16:52:56.605Z,1.53
2023-02-09T16:55:32.219Z,2.00
2023-02-09T16:58:01.737Z,3.63
2023-02-09T17:00:32.374Z,5.93
2023-02-09T17:03:14.127Z,3.27
2023-02-09T17:05:42.867Z,2.77
2023-02-09T17:08:17.800Z,2.90
2023-02-09T17:10:45.610Z,4.13
2023-02-09T17:13:12.679Z,1.67
2023-02-09T17:15:43.926Z,6.03
2023-02-09T17:18:25.121Z,2.47
2023-02-09T17:20:55.300Z,3.80
2023-02-09T17:23:25.029Z,6.87
2023-02-09T17:25:55.163Z,2.87
2023-02-09T17:28:26.199Z,2.50
2023-02-09T17:30:56.256Z,3.00
2023-02-09T17:33:25.417Z,5.53
2023-02-09T17:36:23.928Z,8.63
2023-02-09T17:38:44.258Z,2.63
2023-02-09T17:41:17.112Z,2.50
2023-02-09T17:43:44.057Z,3.67
2023-02-09T17:46:12.233Z,2.33
2023-02-09T17:48:39.266Z,4.67
2023-02-09T17:51:09.694Z,5.13
2023-02-09T17:53:36.440Z,5.47
2023-02-09T17:56:03.346Z,4.10
2023-02-09T17:58:30.048Z,3.17
2023-02-09T18:00:57.120Z,2.33
2023-02-09T18:03:26.057Z,5.20
2023-02-09T18:05:55.989Z,4.23
2023-02-09T18:08:22.968Z,2.03
2023-02-09T18:10:49.760Z,4.03
2023-02-09T18:13:19.271Z,1.90
2023-02-09T18:15:48.814Z,2.83
2023-02-09T18:18:15.931Z,3.47
2023-02-09T18:20:42.652Z,2.77
2023-02-09T18:23:13.279Z,4.20
2023-02-09T18:25:40.134Z,5.03
2023-02-09T18:28:07.611Z,22.43
2023-02-09T18:30:39.046Z,3.50
2023-02-09T18:33:06.608Z,2.43
2023-02-09T18:35:41.539Z,2.47
2023-02-09T18:38:10.217Z,2.40
2023-02-09T18:40:37.898Z,3.60
2023-02-09T18:43:05.706Z,3.87
2023-02-09T18:45:33.014Z,7.73
2023-02-09T18:48:00.755Z,3.80
2023-02-09T18:50:30.172Z,3.30
2023-02-09T18:52:59.313Z,3.00
2023-02-09T18:55:29.725Z,3.97
2023-02-09T18:58:04.424Z,4.60
2023-02-09T19:00:31.235Z,7.57
2023-02-09T19:02:58.814Z,3.07
2023-02-09T19:05:29.267Z,2.60
2023-02-09T19:07:56.569Z,14.83
2023-02-09T19:10:23.773Z,2.17
2023-02-09T19:12:50.432Z,2.50
2023-02-09T19:15:17.849Z,2.10
2023-02-09T19:17:45.334Z,4.10
2023-02-09T19:20:17.106Z,6.07
2023-02-09T19:22:43.866Z,8.60
2023-02-09T19:25:10.599Z,6.60
2023-02-09T19:27:37.654Z,4.63
2023-02-09T19:30:04.870Z,14.23
2023-02-09T19:32:31.619Z,7.97
2023-02-09T19:34:58.533Z,10.77
2023-02-09T19:37:25.173Z,7.60
2023-02-09T19:40:04.328Z,4.77
2023-02-09T19:42:32.148Z,8.23
2023-02-09T19:44:59.133Z,21.03
2023-02-09T19:47:25.985Z,19.77
2023-02-09T19:49:56.900Z,15.00
2023-02-09T19:52:27.516Z,15.37
2023-02-09T19:54:55.487Z,15.50
2023-02-09T19:57:23.427Z,12.10
2023-02-09T19:59:50.109Z,12.47
2023-02-09T20:02:17.551Z,13.90
2023-02-09T20:04:45.983Z,8.70
2023-02-09T20:07:13.759Z,9.80
2023-02-09T20:09:41.623Z,2.60
2023-02-09T20:12:08.399Z,3.50
2023-02-09T20:14:35.232Z,4.73
2023-02-09T20:17:02.011Z,3.93
2023-02-09T20:19:28.791Z,4.70
2023-02-09T20:21:55.468Z,6.10
2023-02-09T20:24:22.573Z,3.33
2023-02-09T20:26:49.459Z,8.13
2023-02-09T20:29:16.921Z,7.27
2023-02-09T20:31:44.749Z,7.30
2023-02-09T20:34:13.420Z,3.20
2023-02-09T20:36:41.958Z,5.90
2023-02-09T20:39:11.008Z,3.43
2023-02-09T20:41:37.692Z,4.37
2023-02-09T20:44:23.229Z,5.57
2023-02-09T20:46:55.573Z,3.97
2023-02-09T20:49:23.870Z,4.10
2023-02-09T20:51:50.483Z,6.00
2023-02-09T20:54:17.150Z,3.60
2023-02-09T20:56:43.982Z,6.53
2023-02-09T20:59:11.952Z,4.50
2023-02-09T21:01:39.238Z,5.07
2023-02-09T21:04:07.512Z,4.70
2023-02-09T21:06:37.047Z,4.57
2023-02-09T21:09:07.797Z,8.33
2023-02-09T21:11:34.556Z,4.80
2023-02-09T21:14:04.454Z,4.80
2023-02-09T21:16:31.741Z,4.97
2023-02-09T21:18:59.062Z,5.70
2023-02-09T21:21:27.119Z,6.30
2023-02-09T21:23:54.083Z,4.37
2023-02-09T21:26:22.789Z,5.50
2023-02-09T21:28:51.360Z,3.77
2023-02-09T21:31:21.133Z,4.70
2023-02-09T21:33:48.159Z,3.00
2023-02-09T21:36:14.807Z,4.87
2023-02-09T21:38:44.337Z,3.77
2023-02-09T21:41:32.315Z,4.13
2023-02-09T21:44:00.512Z,3.60
2023-02-09T21:46:27.917Z,3.30
2023-02-09T21:48:55.074Z,12.77
2023-02-09T21:51:22.338Z,19.53
2023-02-09T21:53:49.154Z,4.50
2023-02-09T21:56:15.864Z,6.40
2023-02-09T21:58:42.700Z,3.53
2023-02-09T22:01:11.191Z,3.90
2023-02-09T22:03:38.756Z,7.03
2023-02-09T22:06:06.222Z,8.93
2023-02-09T22:08:33.046Z,1.73
2023-02-09T22:11:01.757Z,3.23
2023-02-09T22:13:29.190Z,4.67
2023-02-09T22:15:56.318Z,3.67
2023-02-09T22:18:23.196Z,10.83
2023-02-09T22:20:50.946Z,3.27
2023-02-09T22:23:19.360Z,6.77
2023-02-09T22:25:46.084Z,6.90
2023-02-09T22:28:13.830Z,5.40
2023-02-09T22:30:40.773Z,4.30
2023-02-09T22:33:07.430Z,5.17
2023-02-09T22:35:34.131Z,2.90
2023-02-09T22:38:00.794Z,3.63
2023-02-09T22:40:27.417Z,9.10
2023-02-09T22:42:54.034Z,3.20
2023-02-09T22:45:20.638Z,2.67
2023-02-09T22:47:47.210Z,4.40
2023-02-09T22:50:13.844Z,4.07
2023-02-09T22:52:40.424Z,6.37
2023-02-09T22:55:07.091Z,7.83
2023-02-09T22:57:33.764Z,7.40
2023-02-09T23:00:00.325Z,3.63
2023-02-09T23:02:26.964Z,4.70
2023-02-09T23:04:53.648Z,3.70
2023-02-09T23:07:20.368Z,3.20
2023-02-09T23:09:47.012Z,4.93
2023-02-09T23:12:13.628Z,3.60
2023-02-09T23:14:40.227Z,13.73
2023-02-09T23:17:06.841Z,2.37
2023-02-09T23:19:33.489Z,3.20
2023-02-09T23:22:00.312Z,2.20
2023-02-09T23:24:27.844Z,4.03
2023-02-09T23:26:54.882Z,5.20
2023-02-09T23:29:21.799Z,10.40
2023-02-09T23:31:48.560Z,2.40
2023-02-09T23:34:18.241Z,2.80
2023-02-09T23:36:44.881Z,3.47
2023-02-09T23:39:13.954Z,1.67
2023-02-09T23:41:40.545Z,2.93
2023-02-09T23:44:07.130Z,2.70
2023-02-09T23:46:33.863Z,2.67
2023-02-09T23:49:00.513Z,5.50
2023-02-09T23:51:29.855Z,1.70
2023-02-09T23:53:58.098Z,3.47
2023-02-09T23:56:24.787Z,2.30
2023-02-09T23:58:52.516Z,5.17
